Fort McCoy, Wisconsin
Current Conditions -  °F | °C
As of 1:55 PM on Thursday 30 Oct 2014 (Local Time) from KCMY Reporting Station
Overcast Overcast  
Wind Chill: 44°   Ceiling: 5000
Heat Index: 47°   Visibility: 10mi
Dew Point: 35°   Wind: 6mph
Humidity: 63%   Direction: 240°WSW
Pressure: 30.07"   Gusts: NA
Location:  43.9936°N, 90.8051°W
Report Text: KCMY 301855Z AUTO 24005KT 10SM OVC050 08/02 A3007 RMK AO2 T00820016
Loading
Personal Weather Stations






























Interactive Weather Map
Tropical Storm Tracking
New forecast layout! Learn more

10-Day Weather Forecast

Advertisements
Track Severe Weather on mobile